sensor_id;sensor_type;location;lat;lon;timestamp;temperature;humidity
1377;DHT22;682;52.502;13.488;2022-08-25T00:02:20;21.10;1.00
1377;DHT22;682;52.502;13.488;2022-08-25T00:04:48;21.00;1.00
1377;DHT22;682;52.502;13.488;2022-08-25T00:07:17;21.00;1.00
1377;DHT22;682;52.502;13.488;2022-08-25T00:09:46;21.10;1.00
1377;DHT22;682;52.502;13.488;2022-08-25T00:12:15;21.10;1.00
1377;DHT22;682;52.502;13.488;2022-08-25T00:14:49;21.00;1.00
1377;DHT22;682;52.502;13.488;2022-08-25T00:17:28;21.00;1.00
1377;DHT22;682;52.502;13.488;2022-08-25T00:19:58;21.00;1.00
1377;DHT22;682;52.502;13.488;2022-08-25T00:22:47;21.00;1.00
1377;DHT22;682;52.502;13.488;2022-08-25T00:25:19;20.90;1.00
1377;DHT22;682;52.502;13.488;2022-08-25T00:27:53;20.90;1.00
1377;DHT22;682;52.502;13.488;2022-08-25T00:30:29;20.90;1.00
1377;DHT22;682;52.502;13.488;2022-08-25T00:32:59;20.90;1.00
1377;DHT22;682;52.502;13.488;2022-08-25T00:35:28;20.80;1.00
1377;DHT22;682;52.502;13.488;2022-08-25T00:37:57;20.80;1.00
1377;DHT22;682;52.502;13.488;2022-08-25T00:40:26;20.80;1.00
1377;DHT22;682;52.502;13.488;2022-08-25T00:42:58;20.80;1.00
1377;DHT22;682;52.502;13.488;2022-08-25T00:45:30;20.80;1.00
1377;DHT22;682;52.502;13.488;2022-08-25T00:48:17;20.80;1.00
1377;DHT22;682;52.502;13.488;2022-08-25T00:50:45;20.80;1.00
1377;DHT22;682;52.502;13.488;2022-08-25T00:53:19;20.70;1.00
1377;DHT22;682;52.502;13.488;2022-08-25T00:55:46;20.70;1.00
1377;DHT22;682;52.502;13.488;2022-08-25T00:58:18;20.70;1.00
1377;DHT22;682;52.502;13.488;2022-08-25T01:00:48;20.60;1.00
1377;DHT22;682;52.502;13.488;2022-08-25T01:03:17;20.60;1.00
1377;DHT22;682;52.502;13.488;2022-08-25T01:05:45;20.50;1.00
1377;DHT22;682;52.502;13.488;2022-08-25T01:08:13;20.60;1.00
1377;DHT22;682;52.502;13.488;2022-08-25T01:10:43;20.60;1.00
1377;DHT22;682;52.502;13.488;2022-08-25T01:13:13;20.60;1.00
1377;DHT22;682;52.502;13.488;2022-08-25T01:15:43;20.60;1.00
1377;DHT22;682;52.502;13.488;2022-08-25T01:18:10;20.60;1.00
1377;DHT22;682;52.502;13.488;2022-08-25T01:20:38;20.60;1.00
1377;DHT22;682;52.502;13.488;2022-08-25T01:23:07;20.60;1.00
1377;DHT22;682;52.502;13.488;2022-08-25T01:25:40;20.60;1.00
1377;DHT22;682;52.502;13.488;2022-08-25T01:28:11;20.60;1.00
1377;DHT22;682;52.502;13.488;2022-08-25T01:30:38;20.60;1.00
1377;DHT22;682;52.502;13.488;2022-08-25T01:33:07;20.60;1.00
1377;DHT22;682;52.502;13.488;2022-08-25T01:35:35;20.50;1.00
1377;DHT22;682;52.502;13.488;2022-08-25T01:38:04;20.50;1.00
1377;DHT22;682;52.502;13.488;2022-08-25T01:40:35;20.50;1.00
1377;DHT22;682;52.502;13.488;2022-08-25T01:43:06;20.50;1.00
1377;DHT22;682;52.502;13.488;2022-08-25T01:45:41;20.50;1.00
1377;DHT22;682;52.502;13.488;2022-08-25T01:48:10;20.50;1.00
1377;DHT22;682;52.502;13.488;2022-08-25T01:50:38;20.40;1.00
1377;DHT22;682;52.502;13.488;2022-08-25T01:53:08;20.40;1.00
1377;DHT22;682;52.502;13.488;2022-08-25T01:55:41;20.40;1.00
1377;DHT22;682;52.502;13.488;2022-08-25T01:58:18;20.40;1.00
1377;DHT22;682;52.502;13.488;2022-08-25T02:00:46;20.30;1.00
1377;DHT22;682;52.502;13.488;2022-08-25T02:03:14;20.30;1.00
1377;DHT22;682;52.502;13.488;2022-08-25T02:05:40;20.30;1.00
1377;DHT22;682;52.502;13.488;2022-08-25T02:08:08;20.30;1.00
1377;DHT22;682;52.502;13.488;2022-08-25T02:10:36;20.30;1.00
1377;DHT22;682;52.502;13.488;2022-08-25T02:13:05;20.20;1.00
1377;DHT22;682;52.502;13.488;2022-08-25T02:15:37;20.20;1.00
1377;DHT22;682;52.502;13.488;2022-08-25T02:18:05;20.20;1.00
1377;DHT22;682;52.502;13.488;2022-08-25T02:20:32;20.20;1.00
1377;DHT22;682;52.502;13.488;2022-08-25T02:22:59;20.10;1.00
1377;DHT22;682;52.502;13.488;2022-08-25T02:25:25;20.10;1.00
1377;DHT22;682;52.502;13.488;2022-08-25T02:27:52;20.10;1.00
1377;DHT22;682;52.502;13.488;2022-08-25T02:30:21;20.10;1.00
1377;DHT22;682;52.502;13.488;2022-08-25T02:32:48;20.10;1.00
1377;DHT22;682;52.502;13.488;2022-08-25T02:35:15;20.10;1.00
1377;DHT22;682;52.502;13.488;2022-08-25T02:37:46;20.10;1.00
1377;DHT22;682;52.502;13.488;2022-08-25T02:40:12;20.10;1.00
1377;DHT22;682;52.502;13.488;2022-08-25T02:42:39;20.00;1.00
1377;DHT22;682;52.502;13.488;2022-08-25T02:45:07;20.00;1.00
1377;DHT22;682;52.502;13.488;2022-08-25T02:47:35;20.00;1.00
1377;DHT22;682;52.502;13.488;2022-08-25T02:50:02;20.00;1.00
1377;DHT22;682;52.502;13.488;2022-08-25T02:52:29;20.00;1.00
1377;DHT22;682;52.502;13.488;2022-08-25T02:54:56;20.00;1.00
1377;DHT22;682;52.502;13.488;2022-08-25T02:57:23;19.90;1.00
1377;DHT22;682;52.502;13.488;2022-08-25T02:59:50;19.90;1.00
1377;DHT22;682;52.502;13.488;2022-08-25T03:02:18;19.90;1.00
1377;DHT22;682;52.502;13.488;2022-08-25T03:04:46;20.00;1.00
1377;DHT22;682;52.502;13.488;2022-08-25T03:07:13;19.90;1.00
1377;DHT22;682;52.502;13.488;2022-08-25T03:09:39;19.90;1.00
1377;DHT22;682;52.502;13.488;2022-08-25T03:12:07;19.90;1.00
1377;DHT22;682;52.502;13.488;2022-08-25T03:14:38;19.90;1.00
1377;DHT22;682;52.502;13.488;2022-08-25T03:17:06;19.90;1.00
1377;DHT22;682;52.502;13.488;2022-08-25T03:19:33;19.90;1.00
1377;DHT22;682;52.502;13.488;2022-08-25T03:22:02;19.80;1.00
1377;DHT22;682;52.502;13.488;2022-08-25T03:24:29;19.90;1.00
1377;DHT22;682;52.502;13.488;2022-08-25T03:26:56;19.80;1.00
1377;DHT22;682;52.502;13.488;2022-08-25T03:29:22;19.80;1.00
1377;DHT22;682;52.502;13.488;2022-08-25T03:31:49;19.80;1.00
1377;DHT22;682;52.502;13.488;2022-08-25T03:34:18;19.80;1.00
1377;DHT22;682;52.502;13.488;2022-08-25T03:36:49;19.80;1.00
1377;DHT22;682;52.502;13.488;2022-08-25T03:39:21;19.80;1.00
1377;DHT22;682;52.502;13.488;2022-08-25T03:41:49;19.80;1.00
1377;DHT22;682;52.502;13.488;2022-08-25T03:44:17;19.80;1.00
1377;DHT22;682;52.502;13.488;2022-08-25T03:46:46;19.70;1.00
1377;DHT22;682;52.502;13.488;2022-08-25T03:49:17;19.70;1.00
1377;DHT22;682;52.502;13.488;2022-08-25T03:51:47;19.70;1.00
1377;DHT22;682;52.502;13.488;2022-08-25T03:54:18;19.70;1.00
1377;DHT22;682;52.502;13.488;2022-08-25T03:56:45;19.60;1.00
1377;DHT22;682;52.502;13.488;2022-08-25T03:59:12;19.60;1.00
1377;DHT22;682;52.502;13.488;2022-08-25T04:01:41;19.60;1.00
1377;DHT22;682;52.502;13.488;2022-08-25T04:04:09;19.60;1.00
1377;DHT22;682;52.502;13.488;2022-08-25T04:06:40;19.60;1.00
1377;DHT22;682;52.502;13.488;2022-08-25T04:09:08;19.60;1.00
1377;DHT22;682;52.502;13.488;2022-08-25T04:11:37;19.50;1.00
1377;DHT22;682;52.502;13.488;2022-08-25T04:14:04;19.50;1.00
1377;DHT22;682;52.502;13.488;2022-08-25T04:16:32;19.50;1.00
1377;DHT22;682;52.502;13.488;2022-08-25T04:19:02;19.50;1.00
1377;DHT22;682;52.502;13.488;2022-08-25T04:21:29;19.50;1.00
1377;DHT22;682;52.502;13.488;2022-08-25T04:23:56;19.50;1.00
1377;DHT22;682;52.502;13.488;2022-08-25T04:26:34;19.50;1.00
1377;DHT22;682;52.502;13.488;2022-08-25T04:29:05;19.50;1.00
1377;DHT22;682;52.502;13.488;2022-08-25T04:31:41;19.60;1.00
1377;DHT22;682;52.502;13.488;2022-08-25T04:34:08;19.60;1.00
1377;DHT22;682;52.502;13.488;2022-08-25T04:36:36;19.60;1.00
1377;DHT22;682;52.502;13.488;2022-08-25T04:39:03;19.50;1.00
1377;DHT22;682;52.502;13.488;2022-08-25T04:41:30;19.50;1.00
1377;DHT22;682;52.502;13.488;2022-08-25T04:44:00;19.50;1.00
1377;DHT22;682;52.502;13.488;2022-08-25T04:46:30;19.60;1.00
1377;DHT22;682;52.502;13.488;2022-08-25T04:49:00;19.60;1.00
1377;DHT22;682;52.502;13.488;2022-08-25T04:51:29;19.60;1.00
1377;DHT22;682;52.502;13.488;2022-08-25T04:53:58;19.70;1.00
1377;DHT22;682;52.502;13.488;2022-08-25T04:56:27;19.70;1.00
1377;DHT22;682;52.502;13.488;2022-08-25T04:59:00;19.80;1.00
1377;DHT22;682;52.502;13.488;2022-08-25T05:01:28;19.80;1.00
1377;DHT22;682;52.502;13.488;2022-08-25T05:03:59;19.90;1.00
1377;DHT22;682;52.502;13.488;2022-08-25T05:06:27;20.00;1.00
1377;DHT22;682;52.502;13.488;2022-08-25T05:08:54;20.00;1.00
1377;DHT22;682;52.502;13.488;2022-08-25T05:11:22;20.10;1.00
1377;DHT22;682;52.502;13.488;2022-08-25T05:13:51;20.10;1.00
1377;DHT22;682;52.502;13.488;2022-08-25T05:16:21;20.10;1.00
1377;DHT22;682;52.502;13.488;2022-08-25T05:18:50;20.20;1.00
1377;DHT22;682;52.502;13.488;2022-08-25T05:21:21;20.20;1.00
1377;DHT22;682;52.502;13.488;2022-08-25T05:23:48;20.20;1.00
1377;DHT22;682;52.502;13.488;2022-08-25T05:26:17;20.30;1.00
1377;DHT22;682;52.502;13.488;2022-08-25T05:28:44;20.30;1.00
1377;DHT22;682;52.502;13.488;2022-08-25T05:31:13;20.30;1.00
1377;DHT22;682;52.502;13.488;2022-08-25T05:33:40;20.30;1.00
1377;DHT22;682;52.502;13.488;2022-08-25T05:36:11;20.40;1.00
1377;DHT22;682;52.502;13.488;2022-08-25T05:38:39;20.50;1.00
1377;DHT22;682;52.502;13.488;2022-08-25T05:41:08;20.50;1.00
1377;DHT22;682;52.502;13.488;2022-08-25T05:43:36;20.50;1.00
1377;DHT22;682;52.502;13.488;2022-08-25T05:46:05;20.50;1.00
1377;DHT22;682;52.502;13.488;2022-08-25T05:48:33;20.60;1.00
1377;DHT22;682;52.502;13.488;2022-08-25T05:51:02;20.60;1.00
1377;DHT22;682;52.502;13.488;2022-08-25T05:53:31;20.60;1.00
1377;DHT22;682;52.502;13.488;2022-08-25T05:55:59;20.60;1.00
1377;DHT22;682;52.502;13.488;2022-08-25T05:58:27;20.70;1.00
1377;DHT22;682;52.502;13.488;2022-08-25T06:00:54;20.70;1.00
1377;DHT22;682;52.502;13.488;2022-08-25T06:03:21;20.70;1.00
1377;DHT22;682;52.502;13.488;2022-08-25T06:05:48;20.70;1.00
1377;DHT22;682;52.502;13.488;2022-08-25T06:08:17;20.70;1.00
1377;DHT22;682;52.502;13.488;2022-08-25T06:10:50;20.80;1.00
1377;DHT22;682;52.502;13.488;2022-08-25T06:13:18;20.70;1.00
1377;DHT22;682;52.502;13.488;2022-08-25T06:15:44;20.80;1.00
1377;DHT22;682;52.502;13.488;2022-08-25T06:18:11;20.80;1.00
1377;DHT22;682;52.502;13.488;2022-08-25T06:20:39;20.90;1.00
1377;DHT22;682;52.502;13.488;2022-08-25T06:23:06;20.90;1.00
1377;DHT22;682;52.502;13.488;2022-08-25T06:25:33;21.00;1.00
1377;DHT22;682;52.502;13.488;2022-08-25T06:28:02;21.00;1.00
1377;DHT22;682;52.502;13.488;2022-08-25T06:30:30;21.00;1.00
1377;DHT22;682;52.502;13.488;2022-08-25T06:32:57;21.10;1.00
1377;DHT22;682;52.502;13.488;2022-08-25T06:35:24;21.10;1.00
1377;DHT22;682;52.502;13.488;2022-08-25T06:37:52;21.20;1.00
1377;DHT22;682;52.502;13.488;2022-08-25T06:40:20;21.30;1.00
1377;DHT22;682;52.502;13.488;2022-08-25T06:42:47;21.30;1.00
1377;DHT22;682;52.502;13.488;2022-08-25T06:45:16;21.40;1.00
1377;DHT22;682;52.502;13.488;2022-08-25T06:47:44;21.60;1.00
1377;DHT22;682;52.502;13.488;2022-08-25T06:50:11;21.60;1.00
1377;DHT22;682;52.502;13.488;2022-08-25T06:52:38;21.70;1.00
1377;DHT22;682;52.502;13.488;2022-08-25T06:55:05;21.80;1.00
1377;DHT22;682;52.502;13.488;2022-08-25T06:57:32;21.80;1.00
1377;DHT22;682;52.502;13.488;2022-08-25T07:00:00;21.80;1.00
1377;DHT22;682;52.502;13.488;2022-08-25T07:02:28;21.80;1.00
1377;DHT22;682;52.502;13.488;2022-08-25T07:04:55;21.90;1.00
1377;DHT22;682;52.502;13.488;2022-08-25T07:07:22;21.90;1.00
1377;DHT22;682;52.502;13.488;2022-08-25T07:09:49;22.00;1.00
1377;DHT22;682;52.502;13.488;2022-08-25T07:12:15;22.10;1.00
1377;DHT22;682;52.502;13.488;2022-08-25T07:14:42;22.10;1.00
1377;DHT22;682;52.502;13.488;2022-08-25T07:17:09;22.10;1.00
1377;DHT22;682;52.502;13.488;2022-08-25T07:19:37;22.20;1.00
1377;DHT22;682;52.502;13.488;2022-08-25T07:22:04;22.30;1.00
1377;DHT22;682;52.502;13.488;2022-08-25T07:24:31;22.40;1.00
1377;DHT22;682;52.502;13.488;2022-08-25T07:26:59;22.50;1.00
1377;DHT22;682;52.502;13.488;2022-08-25T07:29:27;22.60;1.00
1377;DHT22;682;52.502;13.488;2022-08-25T07:31:54;22.80;1.00
1377;DHT22;682;52.502;13.488;2022-08-25T07:34:21;22.90;1.00
1377;DHT22;682;52.502;13.488;2022-08-25T07:37:07;22.90;1.00
1377;DHT22;682;52.502;13.488;2022-08-25T07:39:34;23.10;1.00
1377;DHT22;682;52.502;13.488;2022-08-25T07:42:11;23.00;1.00
1377;DHT22;682;52.502;13.488;2022-08-25T07:44:38;23.10;1.00
1377;DHT22;682;52.502;13.488;2022-08-25T07:47:06;23.20;1.00
1377;DHT22;682;52.502;13.488;2022-08-25T07:49:38;23.30;1.00
1377;DHT22;682;52.502;13.488;2022-08-25T07:52:06;23.50;1.00
1377;DHT22;682;52.502;13.488;2022-08-25T07:54:34;23.70;1.00
1377;DHT22;682;52.502;13.488;2022-08-25T07:57:10;23.90;1.00
1377;DHT22;682;52.502;13.488;2022-08-25T07:59:39;24.00;1.00
1377;DHT22;682;52.502;13.488;2022-08-25T08:02:08;24.20;1.00
1377;DHT22;682;52.502;13.488;2022-08-25T08:04:36;24.20;1.00
1377;DHT22;682;52.502;13.488;2022-08-25T08:07:03;24.30;1.00
1377;DHT22;682;52.502;13.488;2022-08-25T08:09:32;24.40;1.00
1377;DHT22;682;52.502;13.488;2022-08-25T08:11:59;24.40;1.00
1377;DHT22;682;52.502;13.488;2022-08-25T08:14:26;24.50;1.00
1377;DHT22;682;52.502;13.488;2022-08-25T08:16:52;24.80;1.00
1377;DHT22;682;52.502;13.488;2022-08-25T08:19:19;25.00;1.00
1377;DHT22;682;52.502;13.488;2022-08-25T08:21:47;25.20;1.00
1377;DHT22;682;52.502;13.488;2022-08-25T08:24:15;25.40;1.00
1377;DHT22;682;52.502;13.488;2022-08-25T08:26:43;25.50;1.00
1377;DHT22;682;52.502;13.488;2022-08-25T08:29:10;25.60;1.00
1377;DHT22;682;52.502;13.488;2022-08-25T08:31:37;25.70;1.00
1377;DHT22;682;52.502;13.488;2022-08-25T08:34:04;25.70;1.00
1377;DHT22;682;52.502;13.488;2022-08-25T08:36:32;25.80;1.00
1377;DHT22;682;52.502;13.488;2022-08-25T08:38:59;25.80;1.00
1377;DHT22;682;52.502;13.488;2022-08-25T08:41:47;25.80;1.00
1377;DHT22;682;52.502;13.488;2022-08-25T08:44:41;25.80;1.00
1377;DHT22;682;52.502;13.488;2022-08-25T08:47:14;25.90;1.00
1377;DHT22;682;52.502;13.488;2022-08-25T08:49:51;26.20;1.00
1377;DHT22;682;52.502;13.488;2022-08-25T08:52:36;26.60;1.00
1377;DHT22;682;52.502;13.488;2022-08-25T08:55:19;27.00;1.00
1377;DHT22;682;52.502;13.488;2022-08-25T08:57:51;27.20;1.00
1377;DHT22;682;52.502;13.488;2022-08-25T09:00:21;27.00;1.00
1377;DHT22;682;52.502;13.488;2022-08-25T09:02:52;26.80;1.00
1377;DHT22;682;52.502;13.488;2022-08-25T09:05:22;26.70;1.00
1377;DHT22;682;52.502;13.488;2022-08-25T09:07:54;26.70;1.00
1377;DHT22;682;52.502;13.488;2022-08-25T09:10:23;26.70;1.00
1377;DHT22;682;52.502;13.488;2022-08-25T09:13:01;26.60;1.00
1377;DHT22;682;52.502;13.488;2022-08-25T09:15:35;26.70;1.00
1377;DHT22;682;52.502;13.488;2022-08-25T09:18:27;27.10;1.00
1377;DHT22;682;52.502;13.488;2022-08-25T09:21:06;27.60;1.00
1377;DHT22;682;52.502;13.488;2022-08-25T09:23:45;27.80;1.00
1377;DHT22;682;52.502;13.488;2022-08-25T09:26:26;27.80;1.00
1377;DHT22;682;52.502;13.488;2022-08-25T09:29:01;27.40;1.00
1377;DHT22;682;52.502;13.488;2022-08-25T09:31:32;27.20;1.00
1377;DHT22;682;52.502;13.488;2022-08-25T09:34:03;27.10;1.00
1377;DHT22;682;52.502;13.488;2022-08-25T09:36:32;27.10;1.00
1377;DHT22;682;52.502;13.488;2022-08-25T09:39:00;27.40;1.00
1377;DHT22;682;52.502;13.488;2022-08-25T09:41:45;27.70;1.00
1377;DHT22;682;52.502;13.488;2022-08-25T09:44:24;28.20;1.00
1377;DHT22;682;52.502;13.488;2022-08-25T09:46:55;28.20;1.00
1377;DHT22;682;52.502;13.488;2022-08-25T09:49:37;28.00;1.00
1377;DHT22;682;52.502;13.488;2022-08-25T09:52:30;28.00;1.00
1377;DHT22;682;52.502;13.488;2022-08-25T09:54:59;28.50;1.00
1377;DHT22;682;52.502;13.488;2022-08-25T09:57:30;28.70;1.00
1377;DHT22;682;52.502;13.488;2022-08-25T10:00:12;28.90;1.00
1377;DHT22;682;52.502;13.488;2022-08-25T10:02:41;29.50;1.00
1377;DHT22;682;52.502;13.488;2022-08-25T10:05:20;30.90;1.00
1377;DHT22;682;52.502;13.488;2022-08-25T10:07:51;31.80;1.00
1377;DHT22;682;52.502;13.488;2022-08-25T10:10:23;31.70;1.00
1377;DHT22;682;52.502;13.488;2022-08-25T10:12:51;31.60;1.00
1377;DHT22;682;52.502;13.488;2022-08-25T10:15:22;31.90;1.00
1377;DHT22;682;52.502;13.488;2022-08-25T10:17:50;32.50;1.00
1377;DHT22;682;52.502;13.488;2022-08-25T10:20:20;33.50;1.00
1377;DHT22;682;52.502;13.488;2022-08-25T10:22:48;34.40;1.00
1377;DHT22;682;52.502;13.488;2022-08-25T10:25:17;35.00;1.00
1377;DHT22;682;52.502;13.488;2022-08-25T10:27:52;35.10;1.00
1377;DHT22;682;52.502;13.488;2022-08-25T10:30:24;34.70;1.00
1377;DHT22;682;52.502;13.488;2022-08-25T10:33:08;34.70;1.00
1377;DHT22;682;52.502;13.488;2022-08-25T10:35:47;34.10;1.00
1377;DHT22;682;52.502;13.488;2022-08-25T10:38:32;34.00;1.00
1377;DHT22;682;52.502;13.488;2022-08-25T10:41:15;34.30;1.00
1377;DHT22;682;52.502;13.488;2022-08-25T10:43:51;33.40;1.00
1377;DHT22;682;52.502;13.488;2022-08-25T10:46:29;32.40;1.00
1377;DHT22;682;52.502;13.488;2022-08-25T10:49:21;32.10;1.00
1377;DHT22;682;52.502;13.488;2022-08-25T10:51:55;33.30;1.00
1377;DHT22;682;52.502;13.488;2022-08-25T10:54:37;35.00;1.00
1377;DHT22;682;52.502;13.488;2022-08-25T10:57:14;36.40;1.00
1377;DHT22;682;52.502;13.488;2022-08-25T10:59:51;36.80;1.00
1377;DHT22;682;52.502;13.488;2022-08-25T11:05:30;34.60;1.00
1377;DHT22;682;52.502;13.488;2022-08-25T11:08:07;34.60;1.00
1377;DHT22;682;52.502;13.488;2022-08-25T11:10:43;34.30;1.00
1377;DHT22;682;52.502;13.488;2022-08-25T11:13:19;34.50;1.00
1377;DHT22;682;52.502;13.488;2022-08-25T11:15:53;35.10;1.00
1377;DHT22;682;52.502;13.488;2022-08-25T11:18:24;35.10;1.00
1377;DHT22;682;52.502;13.488;2022-08-25T11:21:01;35.10;1.00
1377;DHT22;682;52.502;13.488;2022-08-25T11:23:35;34.80;1.00
1377;DHT22;682;52.502;13.488;2022-08-25T11:26:07;35.00;1.00
1377;DHT22;682;52.502;13.488;2022-08-25T11:28:47;34.30;1.00
1377;DHT22;682;52.502;13.488;2022-08-25T11:31:16;34.10;1.00
1377;DHT22;682;52.502;13.488;2022-08-25T11:33:44;34.50;1.00
1377;DHT22;682;52.502;13.488;2022-08-25T11:36:24;34.90;1.00
1377;DHT22;682;52.502;13.488;2022-08-25T11:39:03;34.60;1.00
1377;DHT22;682;52.502;13.488;2022-08-25T11:41:44;35.20;1.00
1377;DHT22;682;52.502;13.488;2022-08-25T11:44:35;34.70;1.00
1377;DHT22;682;52.502;13.488;2022-08-25T11:47:25;34.10;1.00
1377;DHT22;682;52.502;13.488;2022-08-25T11:50:01;33.60;1.00
1377;DHT22;682;52.502;13.488;2022-08-25T11:52:45;34.50;1.00
1377;DHT22;682;52.502;13.488;2022-08-25T11:55:16;34.40;1.00
1377;DHT22;682;52.502;13.488;2022-08-25T11:57:46;33.70;1.00
1377;DHT22;682;52.502;13.488;2022-08-25T12:00:35;33.00;1.00
1377;DHT22;682;52.502;13.488;2022-08-25T12:06:18;34.00;1.00
1377;DHT22;682;52.502;13.488;2022-08-25T12:08:50;33.30;1.00
1377;DHT22;682;52.502;13.488;2022-08-25T12:11:44;33.00;1.00
1377;DHT22;682;52.502;13.488;2022-08-25T12:17:24;36.90;1.00
1377;DHT22;682;52.502;13.488;2022-08-25T12:20:07;38.70;1.00
1377;DHT22;682;52.502;13.488;2022-08-25T12:23:02;39.90;1.00
1377;DHT22;682;52.502;13.488;2022-08-25T12:25:49;40.50;1.00
1377;DHT22;682;52.502;13.488;2022-08-25T12:28:47;41.00;1.00
1377;DHT22;682;52.502;13.488;2022-08-25T12:31:27;40.70;1.00
1377;DHT22;682;52.502;13.488;2022-08-25T12:34:36;41.30;1.00
1377;DHT22;682;52.502;13.488;2022-08-25T12:37:13;41.40;1.00
1377;DHT22;682;52.502;13.488;2022-08-25T12:39:44;39.90;1.00
1377;DHT22;682;52.502;13.488;2022-08-25T12:42:22;38.20;1.00
1377;DHT22;682;52.502;13.488;2022-08-25T12:45:10;36.70;1.00
1377;DHT22;682;52.502;13.488;2022-08-25T12:47:40;35.70;1.00
1377;DHT22;682;52.502;13.488;2022-08-25T12:50:34;35.80;1.00
1377;DHT22;682;52.502;13.488;2022-08-25T12:53:10;37.10;1.00
1377;DHT22;682;52.502;13.488;2022-08-25T12:55:41;36.80;1.00
1377;DHT22;682;52.502;13.488;2022-08-25T12:58:46;37.20;1.00
1377;DHT22;682;52.502;13.488;2022-08-25T13:01:25;38.90;1.00
1377;DHT22;682;52.502;13.488;2022-08-25T13:04:34;40.10;1.00
1377;DHT22;682;52.502;13.488;2022-08-25T13:07:23;41.50;1.00
1377;DHT22;682;52.502;13.488;2022-08-25T13:10:17;42.90;1.00
1377;DHT22;682;52.502;13.488;2022-08-25T13:12:54;43.90;1.00
1377;DHT22;682;52.502;13.488;2022-08-25T13:15:33;44.90;1.00
1377;DHT22;682;52.502;13.488;2022-08-25T13:22:08;43.10;1.00
1377;DHT22;682;52.502;13.488;2022-08-25T13:26:01;39.70;1.00
1377;DHT22;682;52.502;13.488;2022-08-25T13:28:54;39.60;1.00
1377;DHT22;682;52.502;13.488;2022-08-25T13:31:48;39.20;1.00
1377;DHT22;682;52.502;13.488;2022-08-25T13:34:19;37.70;1.00
1377;DHT22;682;52.502;13.488;2022-08-25T13:36:48;36.00;1.00
1377;DHT22;682;52.502;13.488;2022-08-25T13:39:36;34.90;1.00
1377;DHT22;682;52.502;13.488;2022-08-25T13:42:13;33.80;1.00
1377;DHT22;682;52.502;13.488;2022-08-25T13:44:42;33.30;1.00
1377;DHT22;682;52.502;13.488;2022-08-25T13:47:16;32.60;1.00
1377;DHT22;682;52.502;13.488;2022-08-25T13:49:48;32.10;1.00
1377;DHT22;682;52.502;13.488;2022-08-25T13:52:24;32.10;1.00
1377;DHT22;682;52.502;13.488;2022-08-25T13:54:55;33.10;1.00
1377;DHT22;682;52.502;13.488;2022-08-25T13:57:28;35.20;1.00
1377;DHT22;682;52.502;13.488;2022-08-25T14:00:00;37.30;1.00
1377;DHT22;682;52.502;13.488;2022-08-25T14:02:45;38.90;1.00
1377;DHT22;682;52.502;13.488;2022-08-25T14:05:34;39.70;1.00
1377;DHT22;682;52.502;13.488;2022-08-25T14:08:02;40.10;1.00
1377;DHT22;682;52.502;13.488;2022-08-25T14:10:37;40.30;1.00
1377;DHT22;682;52.502;13.488;2022-08-25T14:13:12;40.20;1.00
1377;DHT22;682;52.502;13.488;2022-08-25T14:15:40;40.40;1.00
1377;DHT22;682;52.502;13.488;2022-08-25T14:18:30;40.40;1.00
1377;DHT22;682;52.502;13.488;2022-08-25T14:21:06;40.80;1.00
1377;DHT22;682;52.502;13.488;2022-08-25T14:23:36;40.60;1.00
1377;DHT22;682;52.502;13.488;2022-08-25T14:26:04;40.80;1.00
1377;DHT22;682;52.502;13.488;2022-08-25T14:28:31;41.10;1.00
1377;DHT22;682;52.502;13.488;2022-08-25T14:31:01;41.50;1.00
1377;DHT22;682;52.502;13.488;2022-08-25T14:36:52;41.40;1.00
1377;DHT22;682;52.502;13.488;2022-08-25T14:39:20;39.30;1.00
1377;DHT22;682;52.502;13.488;2022-08-25T14:41:48;37.10;1.00
1377;DHT22;682;52.502;13.488;2022-08-25T14:44:21;36.00;1.00
1377;DHT22;682;52.502;13.488;2022-08-25T14:46:50;35.10;1.00
1377;DHT22;682;52.502;13.488;2022-08-25T14:49:22;34.50;1.00
1377;DHT22;682;52.502;13.488;2022-08-25T14:51:53;34.00;1.00
1377;DHT22;682;52.502;13.488;2022-08-25T14:54:29;33.60;1.00
1377;DHT22;682;52.502;13.488;2022-08-25T14:56:57;33.30;1.00
1377;DHT22;682;52.502;13.488;2022-08-25T14:59:24;33.20;1.00
1377;DHT22;682;52.502;13.488;2022-08-25T15:01:52;33.20;1.00
1377;DHT22;682;52.502;13.488;2022-08-25T15:04:32;34.00;1.00
1377;DHT22;682;52.502;13.488;2022-08-25T15:07:14;34.00;1.00
1377;DHT22;682;52.502;13.488;2022-08-25T15:09:56;33.30;1.00
1377;DHT22;682;52.502;13.488;2022-08-25T15:12:24;32.40;1.00
1377;DHT22;682;52.502;13.488;2022-08-25T15:14:51;31.80;1.00
1377;DHT22;682;52.502;13.488;2022-08-25T15:17:19;31.40;1.00
1377;DHT22;682;52.502;13.488;2022-08-25T15:19:46;31.20;1.00
1377;DHT22;682;52.502;13.488;2022-08-25T15:22:17;31.30;1.00
1377;DHT22;682;52.502;13.488;2022-08-25T15:24:47;31.40;1.00
1377;DHT22;682;52.502;13.488;2022-08-25T15:27:19;31.40;1.00
1377;DHT22;682;52.502;13.488;2022-08-25T15:29:47;31.50;1.00
1377;DHT22;682;52.502;13.488;2022-08-25T15:32:15;31.50;1.00
1377;DHT22;682;52.502;13.488;2022-08-25T15:34:43;31.50;1.00
1377;DHT22;682;52.502;13.488;2022-08-25T15:37:14;31.30;1.00
1377;DHT22;682;52.502;13.488;2022-08-25T15:39:50;31.10;1.00
1377;DHT22;682;52.502;13.488;2022-08-25T15:42:21;30.90;1.00
1377;DHT22;682;52.502;13.488;2022-08-25T15:44:49;30.80;1.00
1377;DHT22;682;52.502;13.488;2022-08-25T15:47:22;30.60;1.00
1377;DHT22;682;52.502;13.488;2022-08-25T15:49:50;30.50;1.00
1377;DHT22;682;52.502;13.488;2022-08-25T15:52:22;30.40;1.00
1377;DHT22;682;52.502;13.488;2022-08-25T15:54:50;30.40;1.00
1377;DHT22;682;52.502;13.488;2022-08-25T15:57:21;30.20;1.00
1377;DHT22;682;52.502;13.488;2022-08-25T15:59:50;30.10;1.00
1377;DHT22;682;52.502;13.488;2022-08-25T16:02:21;30.00;1.00
1377;DHT22;682;52.502;13.488;2022-08-25T16:04:48;29.90;1.00
1377;DHT22;682;52.502;13.488;2022-08-25T16:07:20;30.00;1.00
1377;DHT22;682;52.502;13.488;2022-08-25T16:09:49;30.00;1.00
1377;DHT22;682;52.502;13.488;2022-08-25T16:12:28;30.00;1.00
1377;DHT22;682;52.502;13.488;2022-08-25T16:15:00;29.90;1.00
1377;DHT22;682;52.502;13.488;2022-08-25T16:17:28;29.90;1.00
1377;DHT22;682;52.502;13.488;2022-08-25T16:19:55;29.90;1.00
1377;DHT22;682;52.502;13.488;2022-08-25T16:22:26;29.90;1.00
1377;DHT22;682;52.502;13.488;2022-08-25T16:25:02;29.70;1.00
1377;DHT22;682;52.502;13.488;2022-08-25T16:27:29;29.60;1.00
1377;DHT22;682;52.502;13.488;2022-08-25T16:30:01;29.40;1.00
1377;DHT22;682;52.502;13.488;2022-08-25T16:32:28;29.30;1.00
1377;DHT22;682;52.502;13.488;2022-08-25T16:34:57;29.10;1.00
1377;DHT22;682;52.502;13.488;2022-08-25T16:37:24;29.00;1.00
1377;DHT22;682;52.502;13.488;2022-08-25T16:39:51;28.90;1.00
1377;DHT22;682;52.502;13.488;2022-08-25T16:42:19;28.90;1.00
1377;DHT22;682;52.502;13.488;2022-08-25T16:44:46;28.90;1.00
1377;DHT22;682;52.502;13.488;2022-08-25T16:47:13;28.90;1.00
1377;DHT22;682;52.502;13.488;2022-08-25T16:49:42;28.90;1.00
1377;DHT22;682;52.502;13.488;2022-08-25T16:52:10;28.80;1.00
1377;DHT22;682;52.502;13.488;2022-08-25T16:54:51;28.70;1.00
1377;DHT22;682;52.502;13.488;2022-08-25T16:57:37;28.70;1.00
1377;DHT22;682;52.502;13.488;2022-08-25T17:00:06;28.70;1.00
1377;DHT22;682;52.502;13.488;2022-08-25T17:02:34;28.90;1.00
1377;DHT22;682;52.502;13.488;2022-08-25T17:05:02;29.10;1.00
1377;DHT22;682;52.502;13.488;2022-08-25T17:07:29;29.30;1.00